Time;durP1;ratioP1;P1;durP2;ratioP2;P2;SDS_P1;SDS_P2;PMS_P1;PMS_P2;Temp;Humidity;BMP_temperature;BMP_pressure;BME280_temperature;BME280_humidity;BME280_pressure;Samples;Min_cycle;Max_cycle;Signal;HPM_P1;HPM_P2
2023/04/04 00:01:24;;;;;;;5.38;1.27;;;5.60;68.00;;;;;;5073020;28;20043;-76
2023/04/04 00:03:50;;;;;;;2.30;1.60;;;5.60;68.10;;;;;;5055492;28;20036;-76
2023/04/04 00:06:20;;;;;;;3.13;1.35;;;5.50;68.00;;;;;;5072131;28;20060;-76
2023/04/04 00:08:46;;;;;;;4.15;1.73;;;5.50;67.90;;;;;;5055381;28;20036;-76
2023/04/04 00:11:13;;;;;;;5.65;1.60;;;5.40;68.10;;;;;;5072957;28;20025;-77
2023/04/04 00:13:39;;;;;;;5.00;1.63;;;5.30;69.30;;;;;;5055356;28;20101;-77
2023/04/04 00:16:05;;;;;;;3.25;1.80;;;5.30;68.80;;;;;;5072905;28;20029;-77
2023/04/04 00:18:31;;;;;;;4.03;1.45;;;5.30;69.40;;;;;;5072871;28;20037;-77
2023/04/04 00:20:57;;;;;;;4.30;1.50;;;5.30;69.70;;;;;;5071810;28;20033;-76
2023/04/04 00:23:23;;;;;;;4.60;1.90;;;5.20;69.60;;;;;;5072969;28;20025;-77
2023/04/04 00:25:52;;;;;;;2.67;1.55;;;5.30;69.60;;;;;;5072747;28;20025;-76
2023/04/04 00:28:19;;;;;;;5.35;1.40;;;5.30;69.70;;;;;;5074019;28;20036;-77
2023/04/04 00:30:45;;;;;;;2.33;1.63;;;5.30;69.90;;;;;;5076714;28;20084;-76
2023/04/04 00:33:11;;;;;;;3.05;1.42;;;5.30;69.80;;;;;;5076633;28;20028;-77
2023/04/04 00:35:37;;;;;;;4.45;1.88;;;5.30;70.00;;;;;;5076583;28;20025;-76
2023/04/04 00:38:03;;;;;;;3.30;1.70;;;5.30;69.60;;;;;;5075542;28;20040;-77
2023/04/04 00:40:28;;;;;;;4.82;1.35;;;5.20;69.40;;;;;;5075490;28;20036;-77
2023/04/04 00:42:54;;;;;;;2.67;1.92;;;5.10;69.60;;;;;;5075561;28;20230;-77
2023/04/04 00:45:20;;;;;;;2.35;1.48;;;5.20;69.90;;;;;;5075422;28;20093;-76
2023/04/04 00:47:47;;;;;;;3.25;1.70;;;5.20;69.90;;;;;;5042101;28;20033;-77
2023/04/04 00:50:13;;;;;;;5.70;1.70;;;5.20;70.00;;;;;;5076185;28;20048;-77
2023/04/04 00:52:38;;;;;;;6.00;1.73;;;5.20;69.80;;;;;;5042100;28;20025;-77
2023/04/04 00:55:04;;;;;;;3.78;1.67;;;5.20;69.80;;;;;;5076236;28;20017;-77
2023/04/04 00:57:32;;;;;;;3.33;1.65;;;5.20;69.60;;;;;;5058623;28;20044;-76
2023/04/04 00:59:59;;;;;;;2.53;1.45;;;5.10;69.30;;;;;;5076157;28;20032;-77
2023/04/04 01:02:25;;;;;;;3.15;1.45;;;5.10;69.40;;;;;;5076101;28;20043;-77
2023/04/04 01:04:51;;;;;;;2.92;1.35;;;5.10;69.40;;;;;;5075195;28;20017;-77
2023/04/04 01:07:18;;;;;;;6.68;1.65;;;5.10;69.40;;;;;;5075913;28;20037;-77
2023/04/04 01:09:44;;;;;;;4.20;1.58;;;5.00;69.40;;;;;;5075997;28;20021;-77
2023/04/04 01:12:10;;;;;;;4.28;1.50;;;5.00;69.70;;;;;;5058400;28;20040;-76
2023/04/04 01:14:35;;;;;;;3.90;2.13;;;4.90;70.20;;;;;;5075890;28;20021;-77
2023/04/04 01:17:02;;;;;;;4.28;1.55;;;4.80;70.70;;;;;;5074838;28;20044;-76
2023/04/04 01:20:03;;;;;;;6.53;1.75;;;4.80;71.10;;;;;;5075827;28;20021;-77
2023/04/04 01:22:30;;;;;;;6.10;1.75;;;4.80;71.10;;;;;;5075756;28;20479;-76
2023/04/04 01:24:57;;;;;;;4.40;1.55;;;4.80;71.10;;;;;;5058255;28;20035;-77
2023/04/04 01:27:22;;;;;;;3.63;1.45;;;4.80;70.90;;;;;;5074616;28;20036;-76
2023/04/04 01:29:48;;;;;;;3.17;1.48;;;4.80;70.90;;;;;;5074648;28;20025;-76
2023/04/04 01:32:36;;;;;;;3.25;1.60;;;4.70;70.60;;;;;;5075658;28;20459;-76
2023/04/04 01:35:22;;;;;;;5.40;1.70;;;4.70;70.70;;;;;;5075672;28;20013;-76
2023/04/04 01:37:55;;;;;;;2.80;1.60;;;4.70;70.80;;;;;;5074487;28;20025;-77
2023/04/04 01:40:24;;;;;;;3.30;1.50;;;4.60;70.80;;;;;;5074412;28;20031;-76
2023/04/04 01:42:51;;;;;;;4.35;1.70;;;4.60;70.90;;;;;;5075348;28;20021;-77
2023/04/04 01:45:17;;;;;;;5.72;1.98;;;4.60;70.90;;;;;;5057652;28;20033;-76
2023/04/04 01:47:43;;;;;;;4.13;1.63;;;4.60;71.00;;;;;;5075211;28;20025;-77
2023/04/04 01:50:10;;;;;;;3.30;1.60;;;4.50;71.20;;;;;;5041014;28;20049;-77
2023/04/04 01:52:37;;;;;;;3.05;1.40;;;4.50;71.30;;;;;;5075186;28;20048;-76
2023/04/04 01:55:03;;;;;;;4.35;1.60;;;4.50;71.40;;;;;;5075119;28;20100;-76
2023/04/04 01:57:29;;;;;;;3.72;1.55;;;4.40;71.60;;;;;;5075049;28;20042;-77
2023/04/04 01:59:55;;;;;;;4.35;1.92;;;4.30;72.00;;;;;;5057537;28;20029;-77
2023/04/04 02:02:21;;;;;;;3.00;1.70;;;4.30;72.30;;;;;;5074912;28;20055;-76
2023/04/04 02:04:47;;;;;;;5.10;1.60;;;4.30;72.30;;;;;;5075091;28;20040;-76
2023/04/04 02:07:13;;;;;;;6.78;1.90;;;4.40;72.40;;;;;;5057238;28;20029;-76
2023/04/04 02:09:39;;;;;;;6.03;1.63;;;4.40;72.30;;;;;;5073792;28;20021;-77
2023/04/04 02:12:05;;;;;;;2.22;1.50;;;4.40;72.30;;;;;;5057336;28;20088;-76
2023/04/04 02:14:30;;;;;;;3.97;1.52;;;4.30;72.30;;;;;;5073797;28;20025;-77
2023/04/04 02:16:56;;;;;;;3.45;1.73;;;4.20;72.40;;;;;;5073889;28;20053;-76
2023/04/04 02:19:23;;;;;;;3.72;1.95;;;4.30;72.50;;;;;;5056967;28;20045;-76
2023/04/04 02:21:48;;;;;;;6.32;1.70;;;4.30;72.40;;;;;;5073872;28;20029;-77
2023/04/04 02:24:14;;;;;;;3.00;1.35;;;4.30;72.40;;;;;;5073514;28;20398;-77
2023/04/04 02:26:40;;;;;;;3.92;1.73;;;4.30;72.30;;;;;;5073428;28;20047;-77
2023/04/04 02:29:06;;;;;;;3.33;1.42;;;4.30;72.30;;;;;;5056886;28;20032;-77
2023/04/04 02:31:32;;;;;;;3.75;1.45;;;4.20;72.20;;;;;;5056964;28;20025;-76
2023/04/04 02:33:58;;;;;;;4.55;1.75;;;4.20;72.20;;;;;;5073505;28;20022;-76
2023/04/04 02:36:23;;;;;;;2.92;1.45;;;4.20;72.50;;;;;;5056674;28;20021;-77
2023/04/04 02:38:49;;;;;;;4.75;1.63;;;4.10;72.90;;;;;;5074254;28;20043;-76
2023/04/04 02:41:14;;;;;;;3.53;1.55;;;4.10;73.20;;;;;;5073258;28;20037;-77
2023/04/04 02:43:40;;;;;;;2.33;1.60;;;4.00;73.30;;;;;;5074331;28;20056;-77
2023/04/04 02:46:06;;;;;;;4.20;1.55;;;4.00;73.40;;;;;;5074128;28;20018;-77
2023/04/04 02:48:31;;;;;;;4.85;1.45;;;4.00;73.40;;;;;;5056119;28;20033;-76
2023/04/04 02:50:57;;;;;;;2.65;1.50;;;4.00;73.40;;;;;;5072893;28;20048;-76
2023/04/04 02:53:23;;;;;;;2.42;1.60;;;4.10;73.30;;;;;;5072953;28;20390;-76
2023/04/04 02:55:48;;;;;;;4.50;1.55;;;4.10;73.20;;;;;;5056376;28;20029;-77
2023/04/04 02:58:14;;;;;;;3.30;1.73;;;4.10;73.10;;;;;;5073051;28;20025;-77
2023/04/04 03:00:40;;;;;;;3.80;1.55;;;4.10;73.10;;;;;;5073060;28;20413;-77
2023/04/04 03:03:06;;;;;;;3.45;1.60;;;4.00;73.00;;;;;;5056354;28;20085;-76
2023/04/04 03:05:31;;;;;;;2.85;1.77;;;4.00;73.10;;;;;;5072765;28;20033;-76
2023/04/04 03:07:58;;;;;;;4.22;1.65;;;4.00;73.10;;;;;;5056060;28;20052;-76
2023/04/04 03:10:25;;;;;;;3.58;1.67;;;4.00;73.20;;;;;;5072749;28;20051;-77
2023/04/04 03:12:51;;;;;;;4.82;1.52;;;4.00;73.10;;;;;;5056128;28;20024;-77
2023/04/04 03:15:18;;;;;;;3.13;1.90;;;4.00;73.10;;;;;;5073623;28;20025;-77
2023/04/04 03:17:44;;;;;;;2.70;1.70;;;4.00;73.20;;;;;;5072535;28;20092;-77
2023/04/04 03:20:11;;;;;;;3.97;1.98;;;4.00;73.20;;;;;;5072657;28;20033;-77
2023/04/04 03:22:37;;;;;;;4.28;1.88;;;4.00;73.10;;;;;;5056038;28;20047;-76
2023/04/04 03:25:02;;;;;;;2.08;1.40;;;3.90;73.10;;;;;;5072588;28;20033;-76
2023/04/04 03:27:31;;;;;;;4.07;1.70;;;3.90;73.20;;;;;;5055674;28;20025;-76
2023/04/04 03:29:58;;;;;;;2.85;1.88;;;3.80;73.50;;;;;;5055869;28;20025;-76
2023/04/04 03:32:23;;;;;;;2.95;1.90;;;3.70;73.80;;;;;;5072526;28;20021;-76
2023/04/04 03:34:49;;;;;;;4.88;1.85;;;3.70;74.00;;;;;;5072390;28;20505;-76
2023/04/04 03:37:15;;;;;;;5.68;2.10;;;3.70;73.90;;;;;;5072374;28;20040;-76
2023/04/04 03:39:41;;;;;;;3.60;1.70;;;3.70;74.00;;;;;;5072351;28;20084;-76
2023/04/04 03:42:06;;;;;;;2.90;1.60;;;3.70;74.00;;;;;;5073212;28;20025;-76
2023/04/04 03:44:32;;;;;;;4.90;1.85;;;3.70;73.90;;;;;;5055570;28;20033;-76
2023/04/04 03:46:57;;;;;;;4.45;1.98;;;3.70;73.70;;;;;;5072274;28;20029;-76
2023/04/04 03:49:23;;;;;;;3.72;2.13;;;3.60;73.60;;;;;;5072972;28;20052;-76
2023/04/04 03:51:48;;;;;;;4.28;1.95;;;3.60;73.60;;;;;;5072205;28;20021;-76
2023/04/04 03:54:14;;;;;;;3.60;1.80;;;3.60;73.70;;;;;;5073068;28;20029;-76
2023/04/04 03:56:40;;;;;;;3.03;1.70;;;3.60;73.70;;;;;;5072257;28;20021;-76
2023/04/04 03:59:05;;;;;;;2.35;1.63;;;3.60;73.90;;;;;;5072072;28;20033;-76
2023/04/04 04:01:31;;;;;;;5.90;1.77;;;3.60;74.00;;;;;;5073016;28;20021;-76
2023/04/04 04:03:57;;;;;;;4.28;2.13;;;3.60;74.00;;;;;;5059089;28;20044;-76
2023/04/04 04:06:22;;;;;;;3.75;1.75;;;3.50;74.10;;;;;;5076212;28;20044;-76
2023/04/04 04:08:48;;;;;;;4.53;2.45;;;3.50;74.10;;;;;;5076134;28;20059;-76
2023/04/04 04:11:14;;;;;;;4.50;2.20;;;3.50;74.10;;;;;;5077084;28;20044;-76
2023/04/04 04:13:39;;;;;;;3.90;2.10;;;3.40;75.00;;;;;;5076161;28;20085;-76
2023/04/04 04:16:05;;;;;;;5.85;1.88;;;3.40;74.20;;;;;;5075950;28;20025;-76
2023/04/04 04:18:31;;;;;;;4.10;1.88;;;3.40;74.30;;;;;;5076947;28;20033;-77
2023/04/04 04:20:58;;;;;;;3.25;1.70;;;3.40;74.50;;;;;;5076885;28;20021;-77
2023/04/04 04:23:24;;;;;;;3.67;2.10;;;3.40;74.60;;;;;;5075913;28;20100;-77
2023/04/04 04:25:50;;;;;;;6.90;2.50;;;3.40;74.80;;;;;;5076794;28;20029;-76
2023/04/04 04:28:15;;;;;;;3.72;2.15;;;3.40;74.70;;;;;;5076583;28;20101;-77
2023/04/04 04:30:41;;;;;;;3.97;2.10;;;3.40;74.70;;;;;;5075719;28;20040;-76
2023/04/04 04:33:07;;;;;;;4.07;1.98;;;3.30;74.70;;;;;;5075655;28;20028;-77
2023/04/04 04:35:36;;;;;;;3.08;1.77;;;3.30;74.80;;;;;;5076635;28;20485;-76
2023/04/04 04:38:02;;;;;;;2.60;1.73;;;3.30;74.80;;;;;;5075642;28;20025;-76
2023/04/04 04:40:27;;;;;;;7.15;2.13;;;3.20;74.80;;;;;;5075520;28;20039;-76
2023/04/04 04:42:53;;;;;;;2.42;1.70;;;3.20;75.70;;;;;;5075432;28;20059;-76
2023/04/04 04:45:19;;;;;;;3.67;1.83;;;3.20;75.00;;;;;;5075666;28;20049;-76
2023/04/04 04:47:45;;;;;;;3.55;2.15;;;3.20;75.00;;;;;;5076330;28;20047;-76
2023/04/04 04:50:11;;;;;;;4.20;1.95;;;3.20;75.20;;;;;;5075235;28;20064;-76
2023/04/04 04:52:37;;;;;;;3.55;2.20;;;3.20;75.30;;;;;;5075429;28;20021;-76
2023/04/04 04:55:04;;;;;;;4.95;2.22;;;3.20;75.30;;;;;;5042151;28;20021;-76
2023/04/04 04:57:30;;;;;;;5.82;2.50;;;3.10;75.40;;;;;;5076195;28;20021;-76
2023/04/04 04:59:55;;;;;;;3.33;2.03;;;3.00;75.50;;;;;;5058388;28;20036;-75
2023/04/04 05:02:21;;;;;;;4.35;2.40;;;3.00;75.80;;;;;;5076086;28;20107;-76
2023/04/04 05:04:46;;;;;;;3.88;2.28;;;2.90;75.80;;;;;;5076047;28;20040;-76
2023/04/04 05:07:12;;;;;;;6.72;2.33;;;2.80;76.00;;;;;;5074978;28;20029;-76
2023/04/04 05:09:38;;;;;;;3.83;2.33;;;2.80;76.30;;;;;;5075039;28;20052;-76
2023/04/04 05:12:04;;;;;;;7.85;2.55;;;2.80;76.50;;;;;;5075037;28;20021;-76
2023/04/04 05:14:29;;;;;;;4.68;2.47;;;2.90;76.50;;;;;;5075770;28;20037;-76
2023/04/04 05:16:55;;;;;;;4.78;2.15;;;2.90;76.60;;;;;;5075872;28;20025;-76
2023/04/04 05:19:21;;;;;;;3.55;2.13;;;2.90;76.50;;;;;;5074846;28;20101;-76
2023/04/04 05:21:47;;;;;;;5.80;2.15;;;2.90;76.50;;;;;;5074710;28;20078;-76
2023/04/04 05:24:13;;;;;;;4.75;2.35;;;2.90;76.50;;;;;;5075710;28;20033;-76
2023/04/04 05:26:38;;;;;;;6.15;2.78;;;2.90;76.40;;;;;;5074617;28;20017;-75
2023/04/04 05:29:04;;;;;;;4.10;2.47;;;2.90;77.20;;;;;;5075548;28;20088;-76
2023/04/04 05:31:30;;;;;;;4.82;2.53;;;2.80;76.30;;;;;;5074574;28;20037;-75
2023/04/04 05:33:55;;;;;;;6.43;2.47;;;2.90;76.40;;;;;;5075482;28;20053;-76
2023/04/04 05:36:21;;;;;;;4.13;2.40;;;2.90;76.50;;;;;;5074475;28;20051;-76
2023/04/04 05:38:47;;;;;;;7.65;3.25;;;2.90;76.50;;;;;;5057893;28;20044;-76
2023/04/04 05:41:13;;;;;;;4.47;2.22;;;2.90;76.50;;;;;;5057876;28;20025;-76
2023/04/04 05:43:39;;;;;;;4.15;2.40;;;2.90;76.50;;;;;;5075389;28;20029;-76
2023/04/04 05:46:05;;;;;;;5.47;2.50;;;2.90;77.20;;;;;;5057713;28;20037;-75
2023/04/04 05:48:30;;;;;;;4.38;2.47;;;2.90;76.70;;;;;;5074879;28;20560;-76
2023/04/04 05:50:57;;;;;;;7.07;3.40;;;2.90;76.90;;;;;;5074398;28;20049;-75
2023/04/04 05:53:23;;;;;;;4.05;2.90;;;2.90;77.10;;;;;;5075297;28;20029;-76
2023/04/04 05:55:52;;;;;;;7.50;3.22;;;2.90;77.30;;;;;;5041205;28;20025;-76
2023/04/04 05:58:18;;;;;;;8.02;3.10;;;2.90;77.60;;;;;;5075045;28;20029;-76
2023/04/04 06:00:43;;;;;;;7.32;3.17;;;2.90;77.80;;;;;;5073997;28;20059;-76
2023/04/04 06:03:09;;;;;;;6.75;3.60;;;2.90;77.90;;;;;;5074182;28;20044;-76
2023/04/04 06:05:35;;;;;;;9.23;3.92;;;2.90;77.90;;;;;;5074951;28;20043;-76
2023/04/04 06:08:00;;;;;;;6.55;2.97;;;2.90;77.80;;;;;;5073801;28;20048;-76
2023/04/04 06:10:26;;;;;;;7.30;3.42;;;3.00;78.20;;;;;;5073952;28;20028;-76
2023/04/04 06:12:51;;;;;;;6.05;3.65;;;3.00;78.70;;;;;;5040696;28;20021;-76
2023/04/04 06:15:17;;;;;;;6.85;4.00;;;3.00;78.70;;;;;;5074659;28;20076;-76
2023/04/04 06:17:43;;;;;;;5.75;3.25;;;3.00;78.70;;;;;;5057127;28;20104;-76
2023/04/04 06:20:09;;;;;;;9.43;3.75;;;3.10;78.70;;;;;;5074617;28;20036;-76
2023/04/04 06:22:35;;;;;;;9.23;3.47;;;3.10;78.80;;;;;;5073613;28;20033;-76
2023/04/04 06:25:01;;;;;;;5.72;3.60;;;3.10;79.10;;;;;;5074057;28;20032;-76
2023/04/04 06:27:27;;;;;;;5.47;3.45;;;3.20;79.30;;;;;;5073406;28;20033;-76
2023/04/04 06:29:52;;;;;;;8.63;4.20;;;3.20;79.60;;;;;;5056975;28;20043;-76
2023/04/04 06:32:20;;;;;;;8.75;4.20;;;3.30;79.50;;;;;;5073411;28;20116;-76
2023/04/04 06:34:46;;;;;;;6.45;4.05;;;3.30;79.50;;;;;;5074399;28;20088;-76
2023/04/04 06:37:11;;;;;;;5.85;3.67;;;3.40;79.70;;;;;;5074327;28;20036;-76
2023/04/04 06:39:37;;;;;;;7.43;3.90;;;3.50;79.70;;;;;;5074231;28;20024;-76
2023/04/04 06:42:02;;;;;;;8.18;4.43;;;3.50;79.70;;;;;;5074213;28;20029;-76
2023/04/04 06:44:28;;;;;;;7.18;3.92;;;3.60;79.80;;;;;;5073291;28;20039;-76
2023/04/04 06:46:54;;;;;;;5.65;3.42;;;3.60;80.00;;;;;;5073002;28;20029;-76
2023/04/04 06:49:19;;;;;;;9.73;3.90;;;3.70;79.80;;;;;;5056220;28;20053;-76
2023/04/04 06:51:45;;;;;;;6.28;3.70;;;3.70;80.00;;;;;;5039990;28;20029;-76
2023/04/04 06:54:11;;;;;;;9.40;3.63;;;3.70;80.00;;;;;;5056474;28;20032;-76
2023/04/04 06:56:36;;;;;;;8.32;3.97;;;3.70;80.10;;;;;;5073952;28;20021;-76
2023/04/04 06:59:02;;;;;;;6.20;3.78;;;3.80;80.20;;;;;;5056400;28;20039;-76
2023/04/04 07:01:28;;;;;;;7.10;3.60;;;3.80;80.20;;;;;;5056271;28;20051;-76
2023/04/04 07:03:53;;;;;;;5.20;3.70;;;3.90;80.60;;;;;;5056209;28;20101;-76
2023/04/04 07:06:22;;;;;;;7.15;3.58;;;3.90;80.70;;;;;;5072753;28;20058;-76
2023/04/04 07:08:48;;;;;;;6.72;3.47;;;4.00;81.00;;;;;;5072660;28;20029;-77
2023/04/04 07:11:14;;;;;;;7.43;3.50;;;4.00;80.80;;;;;;5073707;28;20032;-76
2023/04/04 07:13:40;;;;;;;7.25;3.53;;;4.10;80.80;;;;;;5072694;28;20033;-76
2023/04/04 07:16:05;;;;;;;5.07;2.95;;;4.10;80.90;;;;;;5056006;28;20029;-77
2023/04/04 07:18:31;;;;;;;6.43;3.40;;;4.20;80.90;;;;;;5072582;28;20047;-77
2023/04/04 07:20:57;;;;;;;6.82;3.35;;;4.30;80.70;;;;;;5073612;28;20040;-76
2023/04/04 07:23:23;;;;;;;7.32;3.22;;;4.40;80.70;;;;;;5055900;28;20025;-75
2023/04/04 07:25:48;;;;;;;4.82;3.05;;;4.40;80.60;;;;;;5072627;28;20064;-76
2023/04/04 07:28:14;;;;;;;6.22;3.33;;;4.50;80.50;;;;;;5055728;28;20029;-76
2023/04/04 07:30:40;;;;;;;5.00;3.08;;;4.60;79.70;;;;;;5073398;28;20032;-76
2023/04/04 07:33:05;;;;;;;6.15;3.20;;;4.70;79.50;;;;;;5055783;28;20028;-76
2023/04/04 07:35:31;;;;;;;4.32;2.80;;;4.80;79.50;;;;;;5072427;28;20048;-76
2023/04/04 07:37:57;;;;;;;7.90;3.53;;;4.80;79.40;;;;;;5071464;28;20081;-75
2023/04/04 07:40:22;;;;;;;6.47;3.78;;;4.90;79.20;;;;;;5072391;28;20055;-76
2023/04/04 07:42:53;;;;;;;7.38;3.38;;;5.00;79.10;;;;;;5072334;28;20037;-76
2023/04/04 07:45:19;;;;;;;5.35;3.05;;;5.10;78.80;;;;;;5072397;28;20029;-76
2023/04/04 07:47:45;;;;;;;6.18;3.35;;;5.10;78.70;;;;;;5072097;28;20059;-76
2023/04/04 07:50:14;;;;;;;7.78;3.22;;;5.20;78.60;;;;;;5072884;28;20124;-75
2023/04/04 07:52:40;;;;;;;6.72;3.00;;;5.30;77.40;;;;;;5072100;28;20029;-75
2023/04/04 07:55:07;;;;;;;5.15;2.92;;;5.40;78.00;;;;;;5055512;28;20021;-76
2023/04/04 07:57:36;;;;;;;8.00;2.90;;;5.50;77.20;;;;;;5072118;28;20029;-75
2023/04/04 08:00:04;;;;;;;8.15;3.25;;;5.60;77.70;;;;;;5073057;28;20111;-76
2023/04/04 08:02:29;;;;;;;7.55;4.10;;;5.70;77.80;;;;;;5072088;28;20538;-75
2023/04/04 08:04:55;;;;;;;6.40;3.22;;;5.90;75.30;;;;;;5073011;28;20032;-75
2023/04/04 08:07:21;;;;;;;7.00;3.05;;;5.90;74.50;;;;;;5071900;28;20511;-75
2023/04/04 08:09:47;;;;;;;5.13;2.92;;;6.00;74.60;;;;;;5072989;28;20029;-75
2023/04/04 08:12:13;;;;;;;6.85;3.00;;;6.10;74.00;;;;;;5072969;28;20021;-76
2023/04/04 08:14:38;;;;;;;4.60;3.00;;;6.20;73.50;;;;;;5073052;28;20040;-76
2023/04/04 08:17:04;;;;;;;8.43;3.38;;;6.30;74.10;;;;;;5072124;28;20051;-75
2023/04/04 08:19:30;;;;;;;8.25;3.13;;;6.40;71.70;;;;;;5072104;28;20021;-75
2023/04/04 08:21:55;;;;;;;5.38;3.00;;;6.50;71.30;;;;;;5072830;28;20040;-76
2023/04/04 08:24:21;;;;;;;4.68;2.40;;;6.50;71.50;;;;;;5071890;28;20032;-76
2023/04/04 08:26:47;;;;;;;4.70;2.30;;;6.50;69.30;;;;;;5071811;28;20060;-75
2023/04/04 08:29:13;;;;;;;6.57;2.85;;;6.50;70.20;;;;;;5072722;28;20084;-76
2023/04/04 08:31:40;;;;;;;5.65;2.58;;;6.60;71.60;;;;;;5055305;28;20039;-75
2023/04/04 08:34:07;;;;;;;7.32;2.83;;;6.80;71.40;;;;;;5071861;28;20025;-75
2023/04/04 08:36:33;;;;;;;4.28;2.13;;;6.90;71.30;;;;;;5072712;28;20021;-76
2023/04/04 08:38:59;;;;;;;3.72;2.20;;;7.10;64.50;;;;;;5072675;28;20025;-76
2023/04/04 08:41:25;;;;;;;8.68;2.85;;;7.10;64.50;;;;;;5055304;28;20435;-75
2023/04/04 08:43:55;;;;;;;4.05;1.83;;;7.20;66.60;;;;;;5072647;28;20410;-76
2023/04/04 08:46:24;;;;;;;4.78;2.03;;;7.30;65.90;;;;;;5055423;28;20029;-76
2023/04/04 08:48:51;;;;;;;5.95;1.70;;;7.40;65.60;;;;;;5073845;28;20036;-76
2023/04/04 08:51:19;;;;;;;3.10;1.50;;;7.50;61.50;;;;;;5076406;28;20029;-76
2023/04/04 08:53:45;;;;;;;4.20;2.05;;;7.60;61.60;;;;;;5076325;28;20105;-76
2023/04/04 08:56:11;;;;;;;6.20;1.98;;;7.60;62.20;;;;;;5076403;28;20075;-76
2023/04/04 08:58:37;;;;;;;3.83;1.38;;;7.80;62.10;;;;;;5076218;28;20029;-75
2023/04/04 09:01:05;;;;;;;3.03;1.75;;;7.90;63.10;;;;;;5076175;28;20028;-75
2023/04/04 09:03:33;;;;;;;3.95;1.83;;;8.10;62.20;;;;;;5076157;28;20080;-76
2023/04/04 09:06:01;;;;;;;6.38;1.88;;;8.10;56.10;;;;;;5075166;28;20021;-76
2023/04/04 09:08:28;;;;;;;3.55;1.70;;;8.20;59.60;;;;;;5076085;28;20031;-75
2023/04/04 09:10:54;;;;;;;3.47;1.70;;;8.30;60.10;;;;;;5076011;28;20028;-76
2023/04/04 09:13:20;;;;;;;5.53;1.60;;;8.40;58.10;;;;;;5075000;28;20025;-76
2023/04/04 09:15:51;;;;;;;4.15;1.45;;;8.40;59.70;;;;;;5075942;28;20500;-76
2023/04/04 09:18:17;;;;;;;3.78;1.85;;;8.60;58.90;;;;;;5076063;28;20025;-75
2023/04/04 09:20:44;;;;;;;3.90;1.80;;;8.70;57.30;;;;;;5075798;28;20033;-76
2023/04/04 09:23:12;;;;;;;1.63;1.30;;;8.70;56.70;;;;;;5074738;28;20033;-76
2023/04/04 09:25:47;;;;;;;5.75;1.80;;;8.70;55.00;;;;;;5075711;28;20088;-76
2023/04/04 09:28:17;;;;;;;3.47;1.48;;;8.70;54.80;;;;;;5075557;28;20029;-76
2023/04/04 09:30:47;;;;;;;4.78;1.98;;;8.70;55.00;;;;;;5075635;28;20041;-76
2023/04/04 09:33:14;;;;;;;3.00;1.65;;;8.80;57.00;;;;;;5074581;28;20025;-76
2023/04/04 09:35:51;;;;;;;4.72;1.63;;;8.90;57.20;;;;;;5074574;28;20026;-76
2023/04/04 09:38:17;;;;;;;2.15;1.27;;;9.00;58.00;;;;;;5075497;28;20028;-76
2023/04/04 09:40:44;;;;;;;4.35;1.70;;;9.00;53.80;;;;;;5041562;28;20021;-76
2023/04/04 09:43:12;;;;;;;6.72;2.00;;;9.00;53.70;;;;;;5075398;28;20021;-77
2023/04/04 09:45:43;;;;;;;2.55;1.35;;;9.10;55.10;;;;;;5074276;28;20045;-76
2023/04/04 09:48:09;;;;;;;4.18;1.70;;;9.20;55.90;;;;;;5075248;28;20051;-76
2023/04/04 09:50:37;;;;;;;3.75;1.60;;;9.30;56.90;;;;;;5075126;28;20080;-76
2023/04/04 09:53:02;;;;;;;3.85;2.15;;;9.50;54.40;;;;;;5075209;28;20024;-77
2023/04/04 09:55:36;;;;;;;3.55;1.60;;;9.50;56.40;;;;;;5074234;28;20036;-77
2023/04/04 09:58:14;;;;;;;3.08;1.60;;;9.70;55.40;;;;;;5074167;28;20044;-77
2023/04/04 10:00:43;;;;;;;4.70;1.70;;;9.70;48.60;;;;;;5073098;28;20025;-77
2023/04/04 10:03:12;;;;;;;4.53;1.75;;;9.40;50.80;;;;;;5073967;28;20084;-77
2023/04/04 10:05:38;;;;;;;4.30;2.10;;;9.40;52.20;;;;;;5074956;28;20045;-77
2023/04/04 10:08:20;;;;;;;4.65;1.88;;;9.40;51.90;;;;;;5074840;28;20036;-77
2023/04/04 10:11:00;;;;;;;5.20;1.45;;;9.50;53.10;;;;;;5073978;28;20031;-77
2023/04/04 10:13:31;;;;;;;4.68;2.10;;;9.60;53.90;;;;;;5073881;28;20112;-76
2023/04/04 10:15:58;;;;;;;5.00;1.90;;;9.80;54.10;;;;;;5074848;28;20049;-77
2023/04/04 10:18:26;;;;;;;2.72;1.70;;;10.00;52.50;;;;;;5074714;28;20024;-76
2023/04/04 10:20:54;;;;;;;2.85;1.55;;;10.00;50.90;;;;;;5073680;28;20036;-77
2023/04/04 10:23:22;;;;;;;4.80;2.08;;;9.70;48.40;;;;;;5074688;28;20044;-77
2023/04/04 10:25:55;;;;;;;3.63;1.60;;;9.80;52.80;;;;;;5073618;28;20025;-76
2023/04/04 10:28:22;;;;;;;4.57;1.88;;;10.00;51.90;;;;;;5074509;28;20025;-76
2023/04/04 10:31:18;;;;;;;4.13;1.88;;;10.00;50.20;;;;;;5074464;28;20048;-77
2023/04/04 10:34:14;;;;;;;3.65;1.67;;;10.10;51.80;;;;;;5063555;28;20032;-76
2023/04/04 10:36:47;;;;;;;4.93;1.83;;;10.00;48.60;;;;;;5073370;28;20092;-77
2023/04/04 10:39:14;;;;;;;4.80;2.15;;;10.10;50.20;;;;;;5073285;28;20041;-76
2023/04/04 10:41:40;;;;;;;4.80;1.67;;;10.20;49.90;;;;;;5073180;28;20029;-76
2023/04/04 10:44:19;;;;;;;4.72;1.85;;;10.20;47.90;;;;;;5074202;28;20024;-77
2023/04/04 10:46:48;;;;;;;4.93;2.00;;;10.20;49.20;;;;;;5073350;28;20045;-77
2023/04/04 10:49:15;;;;;;;3.90;1.80;;;10.30;49.50;;;;;;5072756;28;20041;-77
2023/04/04 10:51:41;;;;;;;2.65;1.80;;;10.40;48.40;;;;;;5056550;28;20029;-77
2023/04/04 10:54:07;;;;;;;3.55;1.70;;;10.10;46.50;;;;;;5074054;28;20048;-77
2023/04/04 10:56:34;;;;;;;3.35;1.55;;;10.20;48.90;;;;;;5073995;28;20029;-76
2023/04/04 10:59:15;;;;;;;3.08;1.77;;;10.30;50.40;;;;;;5073074;28;20048;-76
2023/04/04 11:01:58;;;;;;;2.25;1.38;;;10.30;46.50;;;;;;5072883;28;20033;-77
2023/04/04 11:04:36;;;;;;;3.65;1.55;;;10.10;48.00;;;;;;5072743;28;20029;-77
2023/04/04 11:07:17;;;;;;;2.65;1.77;;;10.20;47.50;;;;;;5073706;28;20037;-77
2023/04/04 11:09:55;;;;;;;4.88;2.00;;;10.20;48.80;;;;;;5073816;28;20029;-77
2023/04/04 11:12:37;;;;;;;2.60;1.52;;;10.30;50.40;;;;;;5073660;28;20013;-77
2023/04/04 11:15:03;;;;;;;6.20;1.98;;;10.50;51.10;;;;;;5072860;28;20117;-77
2023/04/04 11:17:41;;;;;;;4.03;1.90;;;10.70;50.50;;;;;;5073613;28;20029;-76
2023/04/04 11:20:13;;;;;;;4.80;1.70;;;10.90;48.20;;;;;;5072411;28;20025;-77
2023/04/04 11:22:41;;;;;;;3.17;1.77;;;11.00;49.50;;;;;;5072707;28;20040;-77
2023/04/04 11:25:28;;;;;;;3.92;1.80;;;11.10;47.30;;;;;;5056145;28;20025;-77
2023/04/04 11:27:55;;;;;;;4.55;2.00;;;11.20;49.80;;;;;;5073354;28;20025;-77
2023/04/04 11:30:21;;;;;;;8.07;2.30;;;11.30;49.30;;;;;;5072408;28;20043;-77
2023/04/04 11:32:47;;;;;;;3.38;1.90;;;11.40;47.50;;;;;;5072348;28;20021;-77
2023/04/04 11:35:14;;;;;;;3.10;1.95;;;11.40;45.20;;;;;;5072461;28;20021;-77
2023/04/04 11:37:59;;;;;;;5.63;1.92;;;11.40;46.20;;;;;;5072266;28;20033;-76
2023/04/04 11:40:40;;;;;;;6.45;1.80;;;11.10;44.60;;;;;;5072392;28;20021;-77
2023/04/04 11:43:10;;;;;;;4.05;2.00;;;10.90;45.60;;;;;;5073300;28;20033;-77
2023/04/04 11:45:42;;;;;;;3.75;1.90;;;11.00;47.90;;;;;;5072262;28;20033;-77
2023/04/04 11:48:08;;;;;;;3.43;1.60;;;11.20;48.20;;;;;;5073269;28;20025;-77
2023/04/04 11:50:41;;;;;;;3.22;1.90;;;11.40;48.60;;;;;;5071945;28;20053;-77
2023/04/04 11:53:08;;;;;;;6.60;2.10;;;11.50;48.30;;;;;;5072063;28;20043;-77
2023/04/04 11:55:40;;;;;;;3.65;1.85;;;11.60;46.00;;;;;;5072099;28;20017;-77
2023/04/04 11:58:10;;;;;;;5.43;2.22;;;11.60;44.90;;;;;;5072077;28;20032;-77
2023/04/04 12:00:37;;;;;;;3.88;2.25;;;11.70;46.90;;;;;;5073018;28;20036;-77
2023/04/04 12:03:05;;;;;;;8.23;2.63;;;11.70;46.40;;;;;;5073015;28;20047;-77
2023/04/04 12:05:31;;;;;;;4.30;2.38;;;11.60;47.20;;;;;;5073176;28;20028;-77
2023/04/04 12:08:00;;;;;;;4.88;2.20;;;11.70;46.20;;;;;;5071859;28;20033;-77
2023/04/04 12:10:27;;;;;;;3.95;2.17;;;11.70;47.20;;;;;;5073028;28;20081;-77
2023/04/04 12:12:55;;;;;;;5.90;2.17;;;11.80;48.20;;;;;;5073068;28;20017;-77
2023/04/04 12:15:22;;;;;;;3.58;2.10;;;11.80;45.50;;;;;;5071920;28;20042;-77
2023/04/04 12:17:49;;;;;;;5.90;2.20;;;11.80;45.50;;;;;;5071885;28;20029;-77
2023/04/04 12:20:16;;;;;;;5.43;2.30;;;11.60;44.20;;;;;;5055589;28;20021;-77
2023/04/04 12:22:42;;;;;;;6.13;2.28;;;11.70;46.60;;;;;;5071935;28;20025;-77
2023/04/04 12:25:08;;;;;;;3.78;2.25;;;11.60;43.80;;;;;;5076650;28;20032;-77
2023/04/04 12:27:35;;;;;;;6.32;2.45;;;11.60;46.90;;;;;;5076760;28;20025;-77
2023/04/04 12:30:03;;;;;;;4.80;2.20;;;11.60;43.70;;;;;;5075781;28;20044;-77
2023/04/04 12:32:29;;;;;;;4.57;2.40;;;11.50;46.60;;;;;;5059180;28;20045;-77
2023/04/04 12:35:00;;;;;;;4.72;2.70;;;11.70;48.50;;;;;;5076714;28;20017;-77
2023/04/04 12:37:27;;;;;;;5.18;2.60;;;12.00;46.80;;;;;;5075662;28;20025;-77
2023/04/04 12:39:54;;;;;;;3.95;2.40;;;12.00;45.80;;;;;;5075598;28;20028;-77
2023/04/04 12:42:22;;;;;;;5.65;2.40;;;12.00;45.00;;;;;;5075634;28;20043;-77
2023/04/04 12:44:50;;;;;;;55.45;6.65;;;12.00;46.00;;;;;;5075570;28;20017;-77
2023/04/04 12:47:17;;;;;;;6.57;2.65;;;12.10;46.60;;;;;;5076405;28;20101;-77
2023/04/04 12:49:47;;;;;;;4.68;2.83;;;12.30;47.00;;;;;;5058592;28;20464;-77
2023/04/04 12:52:21;;;;;;;6.05;2.50;;;12.50;45.90;;;;;;5075459;28;20028;-77
2023/04/04 12:54:49;;;;;;;4.35;2.45;;;12.60;46.80;;;;;;5076346;28;20025;-76
2023/04/04 12:57:22;;;;;;;4.43;2.17;;;12.70;45.80;;;;;;5076329;28;20063;-77